Redmond Municipal Airport

Airport
ICAO code: 
KRDM
Summary
ICAO Region: 
NAM
Territory: 
Location: 
Redmond, Oregon,
Coordinates: 
Aerial View: 
44° 15' 13.659" N, 121° 9' 3.179" W
Airport CFIT: 
Altimeter Temperature Error Correction
Airport WX: 
Mountain Waves
Metar
Observation
KRDM 040556Z AUTO 20004KT 7SM CLR 00/M02 A3011 RMK AO2 SLP208 T00001022 10100 21006 50008
Station
Redmond, Roberts Field Airport
Date/Time
2021-12-04 05:56:00
Wind direction
200°
Wind speed
04 kts
Lowest cloud amount
n/a
Temperature
0°C
Dew point
-2.2°C
Humidity
85%
Weather condition
n/a

Description

Redmond Municipal Airport, also known as Roberts Field, is a public use airport located 2 km southeast of the central business district of Redmond, a city in Deschutes County, Oregon.

Climatology

Arid desert climate (Köppen climate classification Bwk) with hot, very dry summers and chilly winters with very little snow.

Runways

Designator Length Width Surface Rops
10/28 2133 30 ASP Yes/Yes
4/22 2146 46 ASP Yes/Yes
Airport map: 
Aerial View: 

SKYbrary Partners:

Safety knowledge contributed by: